Agen-La Garenne Airport

LFBA · Lot-et-Garonne, Nouvelle-Aquitaine, Francja

Historia METAR LFBA · Agen-La Garenne Airport

Poniżej widzisz METAR-y z ostatnich kilku dni. Wybierz rok, aby przeglądać starsze METAR-y, począwszy od roku 2007.

17 czerwca 2024

Czas Kod Pogoda Temp. Widoczność Sufit Wiatr METAR/SPECI
05:00
V
17 °C 10 km+ - 310° 310° 4 kt METAR LFBA 170300Z AUTO 31004KT 280V010 9999 //////TCU 17/15 Q1012 TEMPO BKN030
04:30
V
16 °C 10 km+ - 300° 300° 4 kt METAR LFBA 170230Z AUTO 30004KT CAVOK 16/14 Q1012
04:00
V
17 °C 10 km+ - 310° 310° 3 kt METAR LFBA 170200Z AUTO 31003KT CAVOK 17/15 Q1012
03:30
V
18 °C 10 km+ - 300° 300° 4 kt METAR LFBA 170130Z AUTO 30004KT 9999 //////TCU 18/14 Q1012
03:00
V
18 °C 10 km+ - Var Var 2 kt METAR LFBA 170100Z AUTO VRB02KT 9999 //////TCU 18/14 Q1012
02:30
V
18 °C 10 km+ - 310° 310° 5 kt METAR LFBA 170030Z AUTO 31005KT CAVOK 18/15 Q1013
02:00
V
18 °C 10 km+ - 310° 310° 3 kt METAR LFBA 170000Z AUTO 31003KT CAVOK 18/15 Q1013
01:30
V
18 °C 10 km+ - Var Var 2 kt METAR LFBA 162330Z AUTO VRB02KT CAVOK 18/15 Q1013
01:00
V
19 °C 10 km+ - 300° 300° 3 kt METAR LFBA 162300Z AUTO 30003KT CAVOK 19/15 Q1013
00:30
V
19 °C 10 km+ - Var Var 2 kt METAR LFBA 162230Z AUTO VRB02KT CAVOK 19/15 Q1013
00:00
V
19 °C 10 km+ - 300° 300° 5 kt METAR LFBA 162200Z AUTO 30005KT CAVOK 19/15 Q1013

16 czerwca 2024

Czas Kod Pogoda Temp. Widoczność Sufit Wiatr METAR/SPECI
23:30
V
19 °C 10 km+ - 300° 300° 3 kt METAR LFBA 162130Z AUTO 30003KT CAVOK 19/15 Q1013
23:00
U
20 °C 0 m - 310° 310° 2 kt METAR LFBA 162100Z AUTO 31002KT //// R29///// // NSC 20/15 Q1013
22:30
V
20 °C 10 km+ - 310° 310° 3 kt METAR LFBA 162030Z AUTO 31003KT CAVOK 20/15 Q1013
22:00
I
21 °C 4,2 km - 350° 350° 3 kt METAR LFBA 162000Z AUTO 35003KT 4200 HZ NSC 21/15 Q1013 BECMG 9999 NSW
21:30
V
21 °C 10 km+ - 320° 320° 4 kt METAR LFBA 161930Z AUTO 32004KT CAVOK 21/15 Q1013 NOSIG
21:00
V
21 °C 10 km+ - 330° 330° 5 kt METAR LFBA 161900Z AUTO 33005KT CAVOK 21/15 Q1012 NOSIG
20:30
V
22 °C 10 km+ - 330° 330° 7 kt METAR LFBA 161830Z AUTO 33007KT CAVOK 22/15 Q1012 NOSIG
20:00
V
22 °C 10 km+ - 330° 330° 6 kt METAR LFBA 161800Z AUTO 33006KT CAVOK 22/15 Q1012 NOSIG
19:30
V
23 °C 10 km+ - 330° 330° 5 kt METAR LFBA 161730Z AUTO 33005KT 310V010 CAVOK 23/15 Q1012 NOSIG
19:00
V
23 °C 10 km+ - 330° 330° 6 kt METAR LFBA 161700Z AUTO 33006KT 300V360 CAVOK 23/15 Q1012 NOSIG
18:30
V
24 °C 10 km+ 5.200 ft 340° 340° 8 kt METAR LFBA 161630Z AUTO 34008KT 9999 FEW038 BKN052 BKN190 24/15 Q1012 NOSIG
18:00
V
24 °C 10 km+ - 320° 320° 7 kt METAR LFBA 161600Z AUTO 32007KT 280V350 CAVOK 24/16 Q1012 NOSIG
17:30
V
24 °C 10 km+ - 340° 340° 8 kt METAR LFBA 161530Z AUTO 34008KT 310V020 CAVOK 24/16 Q1012 NOSIG
17:00
V
24 °C 10 km+ 6.200 ft 320° 320° 9 kt METAR LFBA 161500Z AUTO 32009KT 9999 SCT047 BKN062 BKN200 24/15 Q1012 TEMPO 26010KT
16:30
V
25 °C 10 km+ 4.500 ft Var Var 4 kt METAR LFBA 161430Z AUTO VRB04KT 9999 BKN045 BKN060 BKN200 25/15 Q1012 NOSIG
16:00
V
25 °C 10 km+ 6.200 ft 320° 320° 4 kt METAR LFBA 161400Z AUTO 32004KT 260V010 9999 FEW045 BKN062 25/14 Q1012 NOSIG
15:30
V
25 °C 10 km+ - Var Var 3 kt METAR LFBA 161330Z AUTO VRB03KT 9999 FEW044 25/13 Q1012 NOSIG
15:00
V
25 °C 10 km+ - 300° 300° 5 kt METAR LFBA 161300Z AUTO 30005KT 220V020 9999 SCT047 SCT060 25/14 Q1012 NOSIG
14:30
V
25 °C 10 km+ 4.700 ft Var Var 3 kt METAR LFBA 161230Z AUTO VRB03KT 9999 BKN047 BKN054 25/14 Q1012 NOSIG
14:00
V
25 °C 10 km+ 4.700 ft Var Var 4 kt METAR LFBA 161200Z AUTO VRB04KT 9999 BKN047 25/13 Q1012 NOSIG
13:30
V
24 °C 10 km+ - 220° 220° 5 kt METAR LFBA 161130Z AUTO 22005KT 140V300 9999 FEW047 24/13 Q1012 NOSIG
13:00
V
24 °C 10 km+ 21.000 ft 270° 270° 5 kt METAR LFBA 161100Z AUTO 27005KT 190V340 9999 FEW041 BKN210 24/14 Q1013 NOSIG
12:30
V
23 °C 10 km+ - 220° 220° 4 kt METAR LFBA 161030Z AUTO 22004KT 170V280 9999 SCT040 SCT210 23/13 Q1013 NOSIG
12:00
V
22 °C 10 km+ 4.200 ft 270° 270° 6 - 17 kt METAR LFBA 161000Z AUTO 27006G17KT 210V350 9999 BKN042 BKN049 22/12 Q1013 NOSIG
11:30
V
22 °C 10 km+ 3.700 ft 280° 280° 6 kt METAR LFBA 160930Z AUTO 28006KT 210V350 9999 BKN037 BKN044 22/13 Q1013 NOSIG
11:00
V
22 °C 10 km+ 4.000 ft 250° 250° 4 kt METAR LFBA 160900Z AUTO 25004KT 200V300 9999 BKN040 22/12 Q1013 NOSIG
10:30
V
21 °C 10 km+ 4.100 ft 090° 090° 5 kt METAR LFBA 160830Z AUTO 09005KT 060V120 9999 BKN041 21/14 Q1013 BECMG 25010KT
10:00
V
19 °C 10 km+ 3.900 ft 080° 080° 4 kt METAR LFBA 160800Z AUTO 08004KT 050V110 9999 BKN039 19/13 Q1014 BECMG 25010KT
09:30
V
19 °C 10 km+ - 090° 090° 4 kt METAR LFBA 160730Z AUTO 09004KT 050V120 9999 SCT043 19/12 Q1014 BECMG 25010KT
09:00
V
17 °C 10 km+ 4.100 ft Var Var 3 kt METAR LFBA 160700Z AUTO VRB03KT 9999 OVC041 17/12 Q1014 NOSIG
08:30
V
16 °C 10 km+ 3.900 ft 130° 130° 3 kt METAR LFBA 160630Z AUTO 13003KT 070V220 9999 OVC039 16/11 Q1013 NOSIG
08:00
V
15 °C 10 km+ 4.200 ft 100° 100° 3 kt METAR LFBA 160600Z AUTO 10003KT 070V180 9999 OVC042 15/13 Q1013 BECMG 25010KT
07:30
V
14 °C 10 km+ 4.400 ft 110° 110° 3 kt METAR LFBA 160530Z AUTO 11003KT 9999 OVC044 14/12 Q1014 BECMG 25010KT
07:00
V
13 °C 10 km+ 4.300 ft 100° 100° 4 kt METAR LFBA 160500Z AUTO 10004KT 9999 OVC043 13/12 Q1014 NOSIG
06:30
V
13 °C 10 km+ 4.100 ft 100° 100° 3 kt METAR LFBA 160430Z AUTO 10003KT 9999 BKN041 OVC056 13/12 Q1014 NOSIG
06:00
V
13 °C 10 km+ 4.100 ft 100° 100° 5 kt METAR LFBA 160400Z AUTO 10005KT 9999 OVC041 13/12 Q1014 NOSIG
05:30
V
13 °C 10 km+ 4.300 ft 110° 110° 5 kt METAR LFBA 160330Z AUTO 11005KT 9999 BKN043 BKN072 OVC086 13/12 Q1014 NOSIG
05:00
V
13 °C 10 km+ 4.300 ft 110° 110° 3 kt METAR LFBA 160300Z AUTO 11003KT 9999 BKN043 BKN082 OVC110 13/12 Q1014 NOSIG
04:30
V
12 °C 10 km+ 11.000 ft 110° 110° 4 kt METAR LFBA 160230Z AUTO 11004KT 9999 FEW041 OVC110 12/11 Q1014
04:00
V
12 °C 10 km+ - 100° 100° 4 kt METAR LFBA 160200Z AUTO 10004KT CAVOK 12/11 Q1014
03:30
V
11 °C 10 km+ - 100° 100° 4 kt METAR LFBA 160130Z AUTO 10004KT CAVOK 11/10 Q1014
03:00
V
10 °C 10 km+ - 110° 110° 3 kt METAR LFBA 160100Z AUTO 11003KT CAVOK 10/09 Q1015
02:30
V
11 °C 10 km+ - 140° 140° 1 kt METAR LFBA 160030Z AUTO 14001KT CAVOK 11/09 Q1015
02:00
V
12 °C 10 km+ - 170° 170° 1 kt METAR LFBA 160000Z AUTO 17001KT CAVOK 12/09 Q1015
01:30
V
13 °C 10 km+ - Var Var 2 kt METAR LFBA 152330Z AUTO VRB02KT CAVOK 13/09 Q1015
01:00
V
12 °C 10 km+ - Var Var 2 kt METAR LFBA 152300Z AUTO VRB02KT CAVOK 12/09 Q1015
00:30
V
14 °C 10 km+ - Var Var 2 kt METAR LFBA 152230Z AUTO VRB02KT CAVOK 14/10 Q1016
00:00
V
14 °C 10 km+ - 220° 220° 3 kt METAR LFBA 152200Z AUTO 22003KT 190V250 CAVOK 14/10 Q1016

15 czerwca 2024

Czas Kod Pogoda Temp. Widoczność Sufit Wiatr METAR/SPECI
23:30
V
15 °C 10 km+ - 220° 220° 4 kt METAR LFBA 152130Z AUTO 22004KT 190V250 CAVOK 15/10 Q1016
23:00
V
13 °C 10 km+ - Var Var 3 kt METAR LFBA 152100Z AUTO VRB03KT CAVOK 13/10 Q1016
22:30
V
15 °C 10 km+ - 250° 250° 2 kt METAR LFBA 152030Z AUTO 25002KT CAVOK 15/11 Q1016
22:00
M
15 °C 6 km - 280° 280° 3 kt METAR LFBA 152000Z AUTO 28003KT 6000 NSC 15/11 Q1015 NOSIG
21:30
V
16 °C 10 km+ - 290° 290° 4 kt METAR LFBA 151930Z AUTO 29004KT 9999 FEW044 16/11 Q1015 NOSIG
21:00
V
17 °C 10 km+ 5.000 ft 300° 300° 4 kt METAR LFBA 151900Z AUTO 30004KT 9999 FEW042 BKN050 17/11 Q1015 NOSIG
20:30
V
18 °C 10 km+ - 310° 310° 9 kt METAR LFBA 151830Z AUTO 31009KT CAVOK 18/11 Q1015 NOSIG
20:00
V
19 °C 10 km+ - 310° 310° 10 kt METAR LFBA 151800Z AUTO 31010KT 9999 FEW049 19/11 Q1015 BECMG 23005KT
19:30
V
19 °C 10 km+ - 290° 290° 10 kt METAR LFBA 151730Z AUTO 29010KT CAVOK 19/09 Q1015 BECMG 23005KT
19:00
V
20 °C 10 km+ 7.400 ft 290° 290° 13 kt METAR LFBA 151700Z AUTO 29013KT 9999 FEW043 SCT050 BKN074 20/09 Q1015 BECMG 23005KT
18:30
V
20 °C 10 km+ 7.400 ft 290° 290° 10 kt METAR LFBA 151630Z AUTO 29010KT 260V320 9999 FEW042 BKN074 20/11 Q1015 NOSIG
18:00
V
20 °C 10 km+ - 300° 300° 11 kt METAR LFBA 151600Z AUTO 30011KT 260V320 9999 FEW039 SCT072 20/11 Q1015 NOSIG
17:30
V
20 °C 10 km+ 7.600 ft 270° 270° 13 kt METAR LFBA 151530Z AUTO 27013KT 220V300 9999 SCT041 BKN076 20/11 Q1015 NOSIG
17:00
V
20 °C 10 km+ - 280° 280° 10 kt METAR LFBA 151500Z AUTO 28010KT 250V310 9999 FEW044 SCT078 20/12 Q1015 TEMPO SCT020TCU BKN035
16:30
V
19 °C 10 km+ 4.900 ft 290° 290° 13 kt METAR LFBA 151430Z AUTO 29013KT 9999 FEW030 SCT036 BKN049 19/12 Q1015 TEMPO SCT020TCU BKN035
16:00
V
18 °C 10 km+ 6.000 ft 270° 270° 8 kt METAR LFBA 151400Z AUTO 27008KT 230V290 9999 FEW034 SCT048 BKN060 18/12 Q1015 TEMPO SCT020TCU BKN035
15:30
V
20 °C 10 km+ 4.800 ft 290° 290° 15 kt METAR LFBA 151330Z AUTO 29015KT 9999 FEW039 BKN048 BKN062 20/12 Q1015 TEMPO SCT020TCU BKN035
15:00
V
19 °C 10 km+ 4.000 ft 270° 270° 11 - 22 kt METAR LFBA 151300Z AUTO 27011G22KT 240V300 9999 BKN040 BKN047 BKN064 19/11 Q1015 TEMPO SCT020TCU BKN035
14:30
V
21 °C 10 km+ - 250° 250° 8 kt METAR LFBA 151230Z AUTO 25008KT 210V290 9999 FEW045 21/11 Q1015 TEMPO SCT020TCU BKN035
14:00
V
21 °C 10 km+ - 250° 250° 7 kt METAR LFBA 151200Z AUTO 25007KT 200V290 9999 FEW036 21/11 Q1015 TEMPO SCT020TCU BKN035
13:30
V
20 °C 10 km+ 6.800 ft 280° 280° 10 kt METAR LFBA 151130Z AUTO 28010KT 240V300 9999 FEW035 BKN068 20/11 Q1015 TEMPO SCT020TCU BKN035
13:00
V
19 °C 10 km+ 3.400 ft 270° 270° 10 kt METAR LFBA 151100Z AUTO 27010KT 9999 BKN034/// BKN048/// BKN080/// ///TCU 19/11 Q1015 NOSIG
12:30
V
20 °C 10 km+ 4.200 ft 260° 260° 9 kt METAR LFBA 151030Z AUTO 26009KT 210V290 9999 SCT036/// BKN042/// BKN084/// ///TCU 20/12 Q1015 NOSIG
12:00
V
19 °C 10 km+ - 250° 250° 8 kt METAR LFBA 151000Z AUTO 25008KT 210V280 9999 FEW031 19/12 Q1015 TEMPO SCT020TCU BKN035
11:30
V
19 °C 10 km+ 3.700 ft 250° 250° 8 kt METAR LFBA 150930Z AUTO 25008KT 210V290 9999 SCT031 BKN037 BKN045 19/12 Q1015 TEMPO SCT020TCU BKN035
11:00
V
19 °C 10 km+ 3.600 ft 240° 240° 7 kt METAR LFBA 150900Z AUTO 24007KT 200V290 9999 FEW021 SCT028 BKN036 19/12 Q1015 TEMPO SCT020TCU BKN035
10:30
M
18 °C 10 km+ 2.100 ft 250° 250° 7 kt METAR LFBA 150830Z AUTO 25007KT 210V280 9999 BKN021 BKN027 BKN032 18/13 Q1015 TEMPO FEW015CB SCT025TCU
10:00
M
18 °C 10 km+ 2.600 ft 240° 240° 7 kt METAR LFBA 150800Z AUTO 24007KT 200V290 9999 SCT018 BKN026 BKN040 18/13 Q1015 TEMPO FEW015CB SCT025TCU
09:30
M
17 °C 10 km+ 1.500 ft 230° 230° 7 kt METAR LFBA 150730Z AUTO 23007KT 190V270 9999 BKN015 BKN060 17/14 Q1015 TEMPO FEW015CB SCT025TCU
09:00
V
17 °C 10 km+ 8.600 ft 220° 220° 6 kt METAR LFBA 150700Z AUTO 22006KT 190V260 9999 FEW015 SCT021 BKN086 17/14 Q1015 TEMPO FEW015CB SCT025TCU
08:30
V
16 °C 10 km+ 8.600 ft 240° 240° 6 kt METAR LFBA 150630Z AUTO 24006KT 210V270 9999 SCT013 BKN086 16/14 Q1015 TEMPO FEW015CB SCT025TCU
08:00
V
16 °C 10 km+ - 220° 220° 6 kt METAR LFBA 150600Z AUTO 22006KT 190V250 CAVOK 16/14 Q1015 TEMPO FEW015CB SCT025TCU
07:30
V
15 °C 10 km+ - 220° 220° 6 kt METAR LFBA 150530Z AUTO 22006KT 200V260 CAVOK 15/14 Q1015 TEMPO FEW015CB SCT025TCU
07:00
V
15 °C 10 km+ - 240° 240° 5 kt METAR LFBA 150500Z AUTO 24005KT 200V280 CAVOK 15/14 Q1015 NOSIG
06:30
V
15 °C 10 km+ - 230° 230° 5 kt METAR LFBA 150430Z AUTO 23005KT 190V260 CAVOK 15/14 Q1015 NOSIG
06:00
V
15 °C 10 km+ - 220° 220° 5 kt METAR LFBA 150400Z AUTO 22005KT 190V250 CAVOK 15/14 Q1015 NOSIG
05:30
V
15 °C 10 km+ 7.000 ft 220° 220° 4 kt METAR LFBA 150330Z AUTO 22004KT 170V250 9999 FEW029 OVC070 15/14 Q1015 NOSIG
05:00
V
15 °C 10 km+ - 210° 210° 4 kt METAR LFBA 150300Z AUTO 21004KT 180V250 CAVOK 15/14 Q1015
04:30
V
15 °C 10 km+ 6.800 ft 200° 200° 3 kt METAR LFBA 150230Z AUTO 20003KT 170V240 9999 FEW010 OVC068 15/14 Q1015
04:00
V
15 °C 10 km+ - 230° 230° 3 kt METAR LFBA 150200Z AUTO 23003KT 200V270 CAVOK 15/14 Q1015
03:30
V
15 °C 10 km+ - Var Var 2 kt METAR LFBA 150130Z AUTO VRB02KT CAVOK 15/13 Q1015
03:00
V
15 °C 10 km+ - 250° 250° 3 kt METAR LFBA 150100Z AUTO 25003KT 210V300 CAVOK 15/13 Q1015
02:30
V
15 °C 10 km+ - 240° 240° 5 kt METAR LFBA 150030Z AUTO 24005KT 200V280 CAVOK 15/13 Q1015
02:00
V
15 °C 10 km+ 6.200 ft 240° 240° 5 kt METAR LFBA 150000Z AUTO 24005KT 210V270 9999 FEW015 OVC062 15/14 Q1015
01:30
V
15 °C 10 km+ 6.000 ft 270° 270° 4 kt METAR LFBA 142330Z AUTO 27004KT 240V300 9999 FEW014/// OVC060/// ///TCU 15/14 Q1015
01:00
V
15 °C 10 km+ 5.800 ft 240° 240° 6 kt METAR LFBA 142300Z AUTO 24006KT 210V280 9999 FEW012/// SCT041/// OVC058/// //////CB 15/14 Q1015
00:30
V
15 °C 10 km+ 5.600 ft 270° 270° 4 kt METAR LFBA 142230Z AUTO 27004KT 210V010 9999 -RA FEW011/// OVC056/// //////CB 15/14 Q1015
00:00
M
15 °C 10 km+ 1.000 ft Var Var 3 kt METAR LFBA 142200Z AUTO VRB03KT 9999 BKN010/// OVC052/// //////CB 15/14 Q1014

14 czerwca 2024

Czas Kod Pogoda Temp. Widoczność Sufit Wiatr METAR/SPECI
23:30
M
15 °C 10 km+ 1.100 ft Var Var 3 kt METAR LFBA 142130Z AUTO VRB03KT 9999 -RA VCTS BKN011/// BKN017/// BKN038/// //////CB 15/14 Q1014
23:00
I
15 °C 4,3 km 4.700 ft 280° 280° 7 kt METAR LFBA 142100Z AUTO 28007KT 250V340 4300 +RA BR FEW008/// BKN047/// OVC058/// ///CB 15/14 Q1014
22:30
I
15 °C 10 km+ 900 ft 280° 280° 8 kt METAR LFBA 142030Z AUTO 28008KT 9999 -RA BKN009/// BKN019/// BKN029/// //////CB 15/14 Q1013
22:00
I
15 °C 4,9 km 4.200 ft 280° 280° 11 kt METAR LFBA 142000Z AUTO 28011KT 4900 +RA BR FEW017/// SCT028/// BKN042/// ///CB 15/14 Q1014 NOSIG
21:30
V
16 °C 10 km+ 4.100 ft 310° 310° 12 kt METAR LFBA 141930Z AUTO 31012KT 9999 FEW014 OVC041 16/13 Q1012 TEMPO 4000 SHRA BECMG SCT035TCU FEW050CB BKN100
21:00
M
16 °C 10 km+ 1.800 ft 300° 300° 16 kt METAR LFBA 141900Z AUTO 30016KT 9999 -RA BKN018/// BKN024/// BKN029/// ///CB 16/14 Q1013 TEMPO 4000 SHRA BKN012 OVC040 FEW050CB BECMG 30005KT
20:30
M
19 °C 10 km+ 1.500 ft 320° 320° 14 kt METAR LFBA 141830Z AUTO 32014KT 290V350 9999 BKN015/// OVC021/// //////CB 19/16 Q1011 TEMPO 31016G26KT 4000 SHRA BKN012 OVC040 FEW050CB
20:00
M
19 °C 10 km+ 1.400 ft 320° 320° 13 kt METAR LFBA 141800Z AUTO 32013KT 9999 BKN014/// //////CB 19/16 Q1011 TEMPO 31016G26KT 2000
19:30
V
22 °C 10 km+ 15.000 ft 310° 310° 11 kt METAR LFBA 141730Z AUTO 31011KT 9999 FEW016/// BKN150/// //////TCU 22/18 Q1010 TEMPO 31016G26KT 2000 BKN012 OVC040 FEW050CB
19:00
V
21 °C 10 km+ 4.500 ft 290° 290° 9 kt METAR LFBA 141700Z AUTO 29009KT 9999 RA FEW037/// BKN045/// BKN100/// ///CB 21/17 Q1011 TEMPO 31016G26KT 2000 BKN012 OVC040 FEW050CB
18:30
V
25 °C 10 km+ 10.000 ft 290° 290° 6 kt METAR LFBA 141630Z AUTO 29006KT 9999 FEW026/// SCT049/// BKN100/// //////CB 25/16 Q1010 TEMPO 31016G26KT 2000 BKN012 OVC040 FEW050CB
18:00
V
23 °C 10 km+ 9.600 ft 300° 300° 7 kt METAR LFBA 141600Z AUTO 30007KT 9999 FEW034/// SCT072/// BKN096/// //////CB 23/17 Q1010 TEMPO 31016G26KT 2000 BKN012 OVC040 FEW050CB
17:30
V
25 °C 10 km+ - 310° 310° 6 kt METAR LFBA 141530Z AUTO 31006KT 9999 //////CB 25/15 Q1010 TEMPO 31016G26KT 2000 BKN012 OVC040 FEW050CB
17:00
V
26 °C 10 km+ - 350° 350° 4 kt METAR LFBA 141500Z AUTO 35004KT 280V060 CAVOK 26/16 Q1010 TEMPO 4000 SHRA BECMG SCT035TCU FEW050CB BKN100
16:30
V
26 °C 10 km+ - 310° 310° 6 kt METAR LFBA 141430Z AUTO 31006KT 9999 FEW047 26/16 Q1011 TEMPO 31016G26KT 2000 BKN012 OVC040 FEW050CB
16:00
V
27 °C 10 km+ - Var Var 4 kt METAR LFBA 141400Z AUTO VRB04KT 9999 FEW048 27/16 Q1011 BECMG SCT035TCU FEW050CB
15:30
V
26 °C 10 km+ - 260° 260° 5 kt METAR LFBA 141330Z AUTO 26005KT 220V310 CAVOK 26/15 Q1012 BECMG SCT035TCU FEW050CB
15:00
V
26 °C 10 km+ - Var Var 3 kt METAR LFBA 141300Z AUTO VRB03KT CAVOK 26/14 Q1012 BECMG SCT035TCU FEW050CB
14:30
V
25 °C 10 km+ - 200° 200° 4 kt METAR LFBA 141230Z AUTO 20004KT 150V250 9999 FEW001 25/14 Q1012 BECMG SCT035TCU FEW050CB
14:00
L
25 °C 10 km+ - 180° 180° 5 kt METAR LFBA 141200Z AUTO 18005KT 150V210 9999 VV/// //////TCU 25/15 Q1012 BECMG SCT035TCU FEW050CB
13:30
V
25 °C 10 km+ - Var Var 2 kt METAR LFBA 141130Z AUTO VRB02KT 9999 SCT039 SCT130 25/15 Q1013 NOSIG
13:00
V
25 °C 10 km+ - 230° 230° 5 kt METAR LFBA 141100Z AUTO 23005KT 180V320 9999 FEW036 25/14 Q1013 NOSIG
12:30
V
24 °C 10 km+ - Var Var 5 kt METAR LFBA 141030Z AUTO VRB05KT 9999 SCT032 SCT140 24/15 Q1013 NOSIG
12:00
V
22 °C 10 km+ - 070° 070° 6 kt METAR LFBA 141000Z AUTO 07006KT 020V120 9999 FEW029 22/16 Q1014 NOSIG
11:30
V
22 °C 10 km+ - 070° 070° 4 kt METAR LFBA 140930Z AUTO 07004KT 340V130 CAVOK 22/15 Q1014 NOSIG
11:00
V
21 °C 10 km+ - 080° 080° 4 kt METAR LFBA 140900Z AUTO 08004KT 030V150 CAVOK 21/15 Q1014 NOSIG
10:30
V
20 °C 10 km+ - Var Var 3 kt METAR LFBA 140830Z AUTO VRB03KT 9999 FEW038 SCT190 20/16 Q1014 NOSIG
10:00
V
18 °C 10 km+ 8.800 ft 360° 360° 0 kt METAR LFBA 140800Z AUTO 00000KT 9999 -RA FEW035/// SCT066/// BKN088/// //////TCU 18/15 Q1014 BECMG NSC
09:30
V
18 °C 10 km+ 11.000 ft Var Var 2 kt METAR LFBA 140730Z AUTO VRB02KT 9999 FEW037/// SCT092/// BKN110/// ///TCU 18/14 Q1014 BECMG NSC
09:00
V
17 °C 10 km+ 8.800 ft Var Var 2 kt METAR LFBA 140700Z AUTO VRB02KT 9999 -RA FEW039/// BKN088/// BKN100/// ///CB 17/15 Q1014 BECMG NSC
08:30
V
17 °C 10 km+ 8.200 ft Var Var 2 kt METAR LFBA 140630Z AUTO VRB02KT 9999 -RA FEW045/// BKN082/// ///TCU 17/14 Q1014 BECMG NSC
08:00
V
17 °C 10 km+ 7.800 ft Var Var 3 kt METAR LFBA 140600Z AUTO VRB03KT 9999 -RA FEW036/// BKN078/// BKN094/// //////CB 17/14 Q1014 TEMPO BKN040
Zgłoś zmianę